Time;durP1;ratioP1;P1;durP2;ratioP2;P2;SDS_P1;SDS_P2;PMS_P1;PMS_P2;Temp;Humidity;BMP_temperature;BMP_pressure;BME280_temperature;BME280_humidity;BME280_pressure;Samples;Min_cycle;Max_cycle;Signal;HPM_P1;HPM_P2
2023/04/12 00:01:25;;;;;;;3.95;0.90;;;14.40;65.90;;;;;;2309993;55;20927;-70
2023/04/12 00:03:53;;;;;;;3.35;0.90;;;14.30;65.80;;;;;;2310510;55;20971;-71
2023/04/12 00:06:24;;;;;;;4.12;0.95;;;14.30;65.80;;;;;;2549629;54;21002;-71
2023/04/12 00:08:53;;;;;;;2.90;0.90;;;14.30;65.90;;;;;;2549631;54;21404;-69
2023/04/12 00:11:20;;;;;;;1.92;0.88;;;14.30;65.90;;;;;;2549196;54;21030;-68
2023/04/12 00:13:46;;;;;;;1.83;0.70;;;14.20;65.90;;;;;;2291267;55;21029;-70
2023/04/12 00:16:14;;;;;;;3.33;0.90;;;14.20;65.90;;;;;;2548791;54;20998;-69
2023/04/12 00:18:41;;;;;;;4.10;0.98;;;14.20;66.00;;;;;;2548153;54;21833;-68
2023/04/12 00:21:09;;;;;;;2.70;1.02;;;14.20;66.00;;;;;;2310332;55;20927;-70
2023/04/12 00:23:36;;;;;;;2.75;0.80;;;14.20;66.00;;;;;;2549974;54;20959;-70
2023/04/12 00:26:03;;;;;;;2.40;0.90;;;14.20;66.10;;;;;;2549165;54;21054;-70
2023/04/12 00:28:29;;;;;;;2.92;1.10;;;14.20;66.20;;;;;;2548715;54;20939;-69
2023/04/12 00:30:56;;;;;;;2.65;0.73;;;14.20;66.20;;;;;;2549571;54;20962;-69
2023/04/12 00:33:22;;;;;;;3.25;0.80;;;14.20;66.20;;;;;;2309960;55;20939;-70
2023/04/12 00:35:48;;;;;;;2.47;0.70;;;14.10;66.10;;;;;;2310002;55;20986;-71
2023/04/12 00:38:16;;;;;;;3.62;0.80;;;14.20;66.30;;;;;;2545982;54;20959;-70
2023/04/12 00:40:42;;;;;;;2.75;0.75;;;14.10;66.30;;;;;;2310298;55;21736;-68
2023/04/12 00:43:14;;;;;;;2.05;1.00;;;14.10;66.30;;;;;;2310431;55;20923;-71
2023/04/12 00:45:41;;;;;;;2.35;0.90;;;14.10;66.20;;;;;;2310363;55;21257;-70
2023/04/12 00:48:07;;;;;;;2.87;0.85;;;14.10;66.40;;;;;;2549529;54;20938;-70
2023/04/12 00:50:34;;;;;;;2.33;0.80;;;14.10;66.40;;;;;;2310355;55;20986;-69
2023/04/12 00:53:02;;;;;;;1.83;0.68;;;14.10;66.40;;;;;;2309861;55;20931;-70
2023/04/12 00:55:29;;;;;;;2.62;0.70;;;14.10;66.40;;;;;;2309735;55;20940;-69
2023/04/12 00:57:59;;;;;;;2.20;0.75;;;14.10;66.40;;;;;;2532442;54;20982;-69
2023/04/12 01:00:26;;;;;;;3.72;1.00;;;14.10;66.40;;;;;;2539587;54;21007;-68
2023/04/12 01:02:55;;;;;;;2.50;0.85;;;14.10;66.50;;;;;;2548238;54;21034;-70
2023/04/12 01:05:22;;;;;;;3.60;0.80;;;14.10;66.60;;;;;;2310123;55;20986;-69
2023/04/12 01:08:18;;;;;;;1.48;0.70;;;14.10;66.60;;;;;;2548471;54;20951;-69
2023/04/12 01:11:44;;;;;;;2.33;0.80;;;14.10;65.60;;;;;;2549760;54;21022;-70
2023/04/12 01:14:18;;;;;;;2.83;0.80;;;14.10;66.00;;;;;;2309832;55;21003;-69
2023/04/12 01:16:52;;;;;;;1.98;0.68;;;14.10;66.40;;;;;;2310214;55;20958;-69
2023/04/12 01:20:22;;;;;;;2.30;0.70;;;14.10;66.50;;;;;;2548960;54;20974;-68
2023/04/12 01:23:05;;;;;;;1.87;0.60;;;14.10;65.30;;;;;;2310246;55;21010;-70
2023/04/12 01:26:53;;;;;;;3.90;0.85;;;14.10;66.50;;;;;;2548942;54;20954;-68
2023/04/12 01:29:21;;;;;;;2.05;0.80;;;14.00;65.30;;;;;;2311814;55;21020;-72
2023/04/12 01:32:05;;;;;;;3.95;0.70;;;14.00;66.70;;;;;;2288771;55;20986;-70
2023/04/12 01:34:32;;;;;;;2.60;0.80;;;14.00;66.10;;;;;;2549043;54;20990;-69
2023/04/12 01:37:00;;;;;;;1.85;0.70;;;14.00;67.00;;;;;;2521765;54;21391;-70
2023/04/12 01:39:28;;;;;;;2.45;0.70;;;14.00;66.80;;;;;;2309566;55;20947;-69
2023/04/12 01:41:54;;;;;;;2.50;0.77;;;14.00;66.80;;;;;;2309610;55;20931;-69
2023/04/12 01:44:21;;;;;;;2.33;0.80;;;14.00;66.90;;;;;;2294915;55;21036;-70
2023/04/12 01:46:48;;;;;;;2.03;0.47;;;14.00;66.90;;;;;;2545060;54;20938;-69
2023/04/12 01:49:15;;;;;;;2.37;0.93;;;13.90;66.90;;;;;;2549652;54;20955;-69
2023/04/12 01:51:57;;;;;;;2.33;0.70;;;14.00;67.10;;;;;;2309872;55;20998;-67
2023/04/12 01:54:32;;;;;;;2.15;0.60;;;13.90;66.60;;;;;;2310260;55;20938;-70
2023/04/12 01:57:00;;;;;;;1.55;0.50;;;13.90;66.70;;;;;;2549245;54;21015;-69
2023/04/12 01:59:30;;;;;;;1.62;0.70;;;13.90;67.00;;;;;;2549259;54;20950;-69
2023/04/12 02:01:58;;;;;;;2.28;0.85;;;13.90;67.10;;;;;;2309755;55;20954;-68
2023/04/12 02:04:26;;;;;;;1.60;0.60;;;13.90;67.10;;;;;;2310101;55;21026;-70
2023/04/12 02:06:52;;;;;;;1.10;0.55;;;13.90;67.00;;;;;;2549687;54;20954;-70
2023/04/12 02:09:19;;;;;;;2.05;0.52;;;13.90;67.00;;;;;;2309332;55;21010;-70
2023/04/12 02:11:47;;;;;;;1.42;0.70;;;13.90;67.00;;;;;;2535162;54;21047;-68
2023/04/12 02:14:14;;;;;;;2.00;0.70;;;13.80;66.80;;;;;;2536948;54;21003;-68
2023/04/12 02:16:49;;;;;;;2.35;0.60;;;13.80;66.80;;;;;;2308508;55;21001;-69
2023/04/12 02:19:15;;;;;;;2.10;0.70;;;13.80;66.50;;;;;;2285096;55;20941;-69
2023/04/12 02:21:42;;;;;;;1.33;0.60;;;13.80;66.80;;;;;;2541749;54;21438;-70
2023/04/12 02:24:09;;;;;;;2.15;0.62;;;13.70;66.70;;;;;;2310169;55;21016;-70
2023/04/12 02:26:37;;;;;;;2.90;0.80;;;13.70;66.80;;;;;;2310150;55;20947;-70
2023/04/12 02:29:06;;;;;;;1.65;0.50;;;13.70;66.90;;;;;;2290734;56;20927;-68
2023/04/12 02:31:33;;;;;;;2.58;0.50;;;13.70;66.90;;;;;;2548957;54;21588;-70
2023/04/12 02:33:59;;;;;;;2.30;0.70;;;13.70;67.00;;;;;;2309786;55;21002;-69
2023/04/12 02:36:26;;;;;;;1.48;0.50;;;13.60;67.00;;;;;;2310002;55;20958;-69
2023/04/12 02:38:54;;;;;;;1.77;0.73;;;13.70;67.10;;;;;;2549491;54;20911;-70
2023/04/12 02:41:21;;;;;;;3.08;0.60;;;13.60;67.00;;;;;;2309619;55;21424;-68
2023/04/12 02:43:47;;;;;;;1.83;0.60;;;13.60;67.20;;;;;;2549544;54;21530;-71
2023/04/12 02:46:16;;;;;;;1.40;0.50;;;13.60;67.20;;;;;;2309819;55;21558;-69
2023/04/12 02:48:42;;;;;;;1.15;0.50;;;13.60;67.30;;;;;;2310188;55;20928;-69
2023/04/12 02:51:09;;;;;;;1.80;0.60;;;13.60;67.30;;;;;;2549285;54;20958;-71
2023/04/12 02:53:35;;;;;;;1.92;0.70;;;13.60;67.30;;;;;;2309714;55;21030;-69
2023/04/12 02:56:04;;;;;;;2.22;0.70;;;13.50;67.20;;;;;;2310268;55;21022;-71
2023/04/12 02:58:32;;;;;;;2.03;0.70;;;13.60;67.30;;;;;;2549286;54;21026;-70
2023/04/12 03:00:59;;;;;;;1.60;0.60;;;13.50;67.30;;;;;;2299694;55;21017;-68
2023/04/12 03:03:25;;;;;;;1.90;0.60;;;13.50;67.30;;;;;;2302062;55;20974;-70
2023/04/12 03:05:52;;;;;;;1.55;0.80;;;13.50;67.40;;;;;;2312307;55;20951;-69
2023/04/12 03:08:20;;;;;;;3.33;0.85;;;13.40;67.30;;;;;;2310963;55;20991;-71
2023/04/12 03:10:47;;;;;;;2.22;0.70;;;13.50;67.50;;;;;;2550779;54;20954;-69
2023/04/12 03:13:15;;;;;;;1.83;0.70;;;13.50;67.50;;;;;;2551081;54;20983;-70
2023/04/12 03:15:44;;;;;;;1.73;0.70;;;13.50;67.60;;;;;;2310923;55;20926;-70
2023/04/12 03:18:11;;;;;;;3.42;0.95;;;13.50;67.70;;;;;;2310557;55;20939;-70
2023/04/12 03:20:43;;;;;;;3.78;1.05;;;13.50;67.80;;;;;;2291831;55;20951;-70
2023/04/12 03:23:13;;;;;;;3.08;0.65;;;13.50;67.80;;;;;;2297277;55;20957;-69
2023/04/12 03:25:40;;;;;;;2.42;0.77;;;13.50;67.80;;;;;;2305933;55;20935;-71
2023/04/12 03:28:06;;;;;;;2.50;0.73;;;13.50;67.80;;;;;;2311038;55;20934;-68
2023/04/12 03:30:32;;;;;;;3.10;0.80;;;13.50;67.80;;;;;;2294085;55;21005;-68
2023/04/12 03:32:59;;;;;;;2.87;0.60;;;13.50;67.80;;;;;;2308791;55;21527;-69
2023/04/12 03:35:26;;;;;;;3.75;0.70;;;13.50;67.80;;;;;;2310674;55;21025;-70
2023/04/12 03:37:52;;;;;;;3.33;0.80;;;13.50;67.80;;;;;;2550488;54;20970;-70
2023/04/12 03:40:18;;;;;;;4.53;1.00;;;13.40;67.70;;;;;;2310986;55;20939;-70
2023/04/12 03:42:44;;;;;;;1.40;0.68;;;13.50;67.80;;;;;;2550324;54;20939;-69
2023/04/12 03:45:11;;;;;;;2.62;0.85;;;13.50;67.80;;;;;;2550241;54;21856;-69
2023/04/12 03:47:38;;;;;;;2.03;0.80;;;13.40;67.70;;;;;;2310877;55;20941;-69
2023/04/12 03:50:05;;;;;;;1.55;0.50;;;13.50;67.90;;;;;;2550410;54;20970;-71
2023/04/12 03:52:36;;;;;;;2.03;0.70;;;13.40;67.90;;;;;;2311065;55;20919;-70
2023/04/12 03:55:04;;;;;;;3.83;0.80;;;13.40;67.90;;;;;;2310776;55;20975;-68
2023/04/12 03:57:32;;;;;;;2.12;0.80;;;13.40;67.90;;;;;;2310212;55;20963;-71
2023/04/12 03:59:58;;;;;;;1.87;0.60;;;13.50;67.90;;;;;;2550412;54;21049;-69
2023/04/12 04:02:25;;;;;;;2.78;0.80;;;13.40;67.80;;;;;;2310892;55;20987;-71
2023/04/12 04:04:51;;;;;;;2.80;1.00;;;13.40;67.80;;;;;;2311171;55;20915;-67
2023/04/12 04:07:17;;;;;;;3.95;1.00;;;13.50;68.00;;;;;;2311142;55;21761;-68
2023/04/12 04:09:44;;;;;;;2.55;0.90;;;13.40;67.90;;;;;;2537702;54;21792;-68
2023/04/12 04:12:11;;;;;;;2.12;0.80;;;13.50;68.00;;;;;;2535795;54;21003;-70
2023/04/12 04:14:37;;;;;;;2.10;0.80;;;13.50;68.00;;;;;;2310652;55;20903;-69
2023/04/12 04:17:03;;;;;;;2.92;0.82;;;13.50;68.00;;;;;;2310508;55;20923;-69
2023/04/12 04:19:30;;;;;;;2.70;0.90;;;13.50;68.10;;;;;;2298210;55;22471;-69
2023/04/12 04:21:56;;;;;;;2.08;1.05;;;13.50;68.10;;;;;;2539089;54;20936;-68
2023/04/12 04:24:23;;;;;;;2.83;0.90;;;13.50;68.10;;;;;;2310323;55;21056;-70
2023/04/12 04:26:53;;;;;;;2.47;0.70;;;13.50;68.10;;;;;;2310032;55;20983;-69
2023/04/12 04:29:22;;;;;;;2.43;0.80;;;13.50;68.10;;;;;;2550257;54;20994;-70
2023/04/12 04:31:48;;;;;;;2.08;0.75;;;13.50;68.10;;;;;;2549336;54;20968;-68
2023/04/12 04:34:15;;;;;;;3.62;0.80;;;13.50;68.10;;;;;;2310641;55;20970;-70
2023/04/12 04:36:42;;;;;;;2.65;0.70;;;13.50;68.10;;;;;;2310531;55;21022;-71
2023/04/12 04:39:08;;;;;;;2.65;0.88;;;13.50;68.10;;;;;;2549705;54;20938;-70
2023/04/12 04:41:38;;;;;;;2.72;0.82;;;13.50;68.10;;;;;;2310136;55;20947;-71
2023/04/12 04:44:09;;;;;;;3.20;0.70;;;13.50;68.10;;;;;;2310978;55;21070;-71
2023/04/12 04:46:38;;;;;;;2.80;0.70;;;13.60;68.30;;;;;;2549056;54;21026;-68
2023/04/12 04:49:05;;;;;;;3.95;1.08;;;13.60;68.20;;;;;;2549941;54;20950;-69
2023/04/12 04:51:31;;;;;;;3.15;0.95;;;13.70;68.50;;;;;;2549591;54;20950;-72
2023/04/12 04:53:57;;;;;;;1.67;0.77;;;13.50;68.30;;;;;;2549280;54;21054;-70
2023/04/12 04:56:24;;;;;;;2.03;0.80;;;13.60;68.40;;;;;;2549582;54;20938;-68
2023/04/12 04:58:51;;;;;;;3.42;0.80;;;13.60;68.50;;;;;;2310077;55;20991;-71
2023/04/12 05:01:17;;;;;;;3.87;0.80;;;13.60;68.50;;;;;;2549952;54;21841;-70
2023/04/12 05:03:43;;;;;;;4.05;1.17;;;13.70;68.50;;;;;;2310718;55;20954;-69
2023/04/12 05:06:10;;;;;;;2.35;0.70;;;13.70;68.50;;;;;;2521672;54;21770;-71
2023/04/12 05:08:37;;;;;;;2.42;0.65;;;13.70;68.40;;;;;;2549165;54;20938;-68
2023/04/12 05:11:04;;;;;;;2.40;1.00;;;13.70;68.40;;;;;;2310326;55;20923;-69
2023/04/12 05:13:31;;;;;;;3.53;0.85;;;13.70;68.50;;;;;;2549562;54;21789;-71
2023/04/12 05:15:58;;;;;;;2.85;0.90;;;13.80;68.60;;;;;;2528556;54;20946;-70
2023/04/12 05:18:26;;;;;;;4.50;0.90;;;13.70;68.40;;;;;;2306748;55;20994;-70
2023/04/12 05:20:52;;;;;;;1.83;0.80;;;13.80;68.60;;;;;;2309940;55;20975;-69
2023/04/12 05:23:19;;;;;;;4.12;1.10;;;13.80;68.60;;;;;;2310601;55;20934;-69
2023/04/12 05:25:48;;;;;;;1.90;0.80;;;13.80;68.60;;;;;;2310547;55;20955;-68
2023/04/12 05:28:16;;;;;;;1.92;0.90;;;13.80;68.50;;;;;;2310190;55;21046;-70
2023/04/12 05:30:43;;;;;;;2.08;0.75;;;13.90;68.60;;;;;;2549333;54;20950;-69
2023/04/12 05:33:10;;;;;;;3.95;1.30;;;13.90;68.70;;;;;;2511341;54;2120133;-71
2023/04/12 05:35:36;;;;;;;2.87;1.20;;;13.90;68.70;;;;;;2310489;55;21046;-69
2023/04/12 05:38:04;;;;;;;4.47;1.60;;;13.90;68.70;;;;;;2549576;54;21049;-69
2023/04/12 05:40:30;;;;;;;4.32;1.65;;;13.90;68.60;;;;;;2309907;55;20935;-69
2023/04/12 05:42:57;;;;;;;5.32;1.92;;;13.90;68.60;;;;;;2309760;55;20947;-71
2023/04/12 05:45:23;;;;;;;4.57;1.50;;;14.00;68.70;;;;;;2549448;54;21562;-70
2023/04/12 05:47:51;;;;;;;3.92;1.50;;;14.00;68.70;;;;;;2309829;55;21369;-70
2023/04/12 05:50:19;;;;;;;5.12;1.40;;;14.00;68.70;;;;;;2549723;54;21010;-70
2023/04/12 05:52:47;;;;;;;3.17;1.27;;;14.10;68.80;;;;;;2310088;55;20922;-68
2023/04/12 05:55:15;;;;;;;3.55;1.33;;;14.10;68.80;;;;;;2521696;54;20963;-69
2023/04/12 05:57:43;;;;;;;3.70;1.12;;;14.10;68.70;;;;;;2310773;55;20923;-69
2023/04/12 06:00:15;;;;;;;3.37;1.48;;;14.10;68.70;;;;;;2549372;54;21051;-71
2023/04/12 06:02:45;;;;;;;2.80;1.40;;;14.10;68.70;;;;;;2521829;54;20987;-70
2023/04/12 06:05:11;;;;;;;3.37;1.40;;;14.20;68.80;;;;;;2549229;54;20955;-68
2023/04/12 06:07:38;;;;;;;4.78;1.67;;;14.10;68.60;;;;;;2310494;55;21420;-70
2023/04/12 06:10:06;;;;;;;3.17;1.77;;;14.30;68.80;;;;;;2310571;55;20946;-69
2023/04/12 06:12:33;;;;;;;4.80;1.80;;;14.20;68.60;;;;;;2522439;54;21091;-70
2023/04/12 06:14:59;;;;;;;4.55;1.58;;;14.30;68.70;;;;;;2550142;54;20994;-70
2023/04/12 06:17:26;;;;;;;3.70;1.83;;;14.30;68.70;;;;;;2299813;55;21054;-70
2023/04/12 06:19:53;;;;;;;4.60;1.83;;;14.30;68.60;;;;;;2289126;55;21030;-70
2023/04/12 06:22:19;;;;;;;4.03;1.50;;;14.30;68.60;;;;;;2310160;55;20951;-70
2023/04/12 06:24:45;;;;;;;4.28;1.60;;;14.30;68.60;;;;;;2549428;54;20919;-70
2023/04/12 06:27:13;;;;;;;2.95;1.33;;;14.40;68.70;;;;;;2310571;55;20943;-70
2023/04/12 06:29:40;;;;;;;3.40;1.30;;;14.30;68.50;;;;;;2549430;54;20966;-68
2023/04/12 06:32:06;;;;;;;2.37;0.95;;;14.40;68.60;;;;;;2310215;55;20958;-71
2023/04/12 06:34:32;;;;;;;1.75;0.80;;;14.40;68.60;;;;;;2309814;55;20911;-69
2023/04/12 06:37:00;;;;;;;3.17;1.00;;;14.30;68.40;;;;;;2535291;54;21795;-68
2023/04/12 06:39:26;;;;;;;4.18;1.05;;;14.50;68.60;;;;;;2299672;55;21424;-71
2023/04/12 06:41:52;;;;;;;3.22;1.10;;;14.50;68.50;;;;;;2309878;55;21471;-69
2023/04/12 06:44:18;;;;;;;2.30;0.90;;;14.50;68.50;;;;;;2309726;55;21846;-71
2023/04/12 06:46:45;;;;;;;2.55;0.80;;;14.60;68.50;;;;;;2309884;55;21475;-68
2023/04/12 06:49:11;;;;;;;2.70;1.25;;;14.60;68.50;;;;;;2549128;54;20995;-70
2023/04/12 06:51:38;;;;;;;3.28;0.85;;;14.60;68.40;;;;;;2310044;55;21010;-69
2023/04/12 06:54:05;;;;;;;3.85;1.30;;;14.60;68.40;;;;;;2549655;54;21079;-71
2023/04/12 06:56:31;;;;;;;3.50;0.80;;;14.70;68.50;;;;;;2309787;55;21007;-70
2023/04/12 06:58:58;;;;;;;4.87;1.08;;;14.70;68.40;;;;;;2310089;55;20966;-69
2023/04/12 07:01:25;;;;;;;2.45;1.00;;;14.70;68.50;;;;;;2529972;54;20993;-68
2023/04/12 07:03:53;;;;;;;4.30;1.20;;;14.70;68.50;;;;;;2303929;55;20943;-69
2023/04/12 07:06:22;;;;;;;1.65;0.75;;;14.80;68.50;;;;;;2310108;55;20990;-69
2023/04/12 07:08:51;;;;;;;3.22;0.93;;;14.80;68.50;;;;;;2310465;55;20998;-69
2023/04/12 07:11:18;;;;;;;2.30;0.98;;;14.80;68.50;;;;;;2547982;54;21867;-68
2023/04/12 07:13:46;;;;;;;2.58;0.90;;;14.80;68.40;;;;;;2309686;55;21034;-70
2023/04/12 07:16:12;;;;;;;3.05;0.95;;;14.90;68.50;;;;;;2310121;55;20958;-71
2023/04/12 07:18:40;;;;;;;3.00;1.10;;;14.90;68.50;;;;;;2291057;55;20949;-69
2023/04/12 07:21:07;;;;;;;2.40;0.93;;;14.90;68.50;;;;;;2549467;54;21007;-68
2023/04/12 07:23:33;;;;;;;2.47;0.95;;;15.00;68.60;;;;;;2549438;54;20931;-69
2023/04/12 07:26:00;;;;;;;2.50;1.00;;;15.10;68.70;;;;;;2549620;54;21673;-72
2023/04/12 07:28:26;;;;;;;2.50;1.10;;;15.00;68.70;;;;;;2310307;55;21026;-71
2023/04/12 07:30:54;;;;;;;3.00;0.93;;;15.10;68.80;;;;;;2310554;55;20920;-72
2023/04/12 07:33:20;;;;;;;2.40;0.85;;;15.10;68.60;;;;;;2310346;55;20995;-69
2023/04/12 07:35:47;;;;;;;2.50;0.80;;;15.20;68.80;;;;;;2311001;55;21070;-70
2023/04/12 07:38:13;;;;;;;2.25;1.00;;;15.20;68.70;;;;;;2549773;54;20898;-69
2023/04/12 07:40:43;;;;;;;3.00;1.00;;;15.20;68.60;;;;;;2309840;55;20927;-69
2023/04/12 07:43:10;;;;;;;2.97;1.05;;;15.30;68.50;;;;;;2310280;55;21021;-70
2023/04/12 07:45:36;;;;;;;3.85;1.05;;;15.30;68.50;;;;;;2549344;54;21051;-69
2023/04/12 07:48:03;;;;;;;3.55;1.20;;;15.30;68.40;;;;;;2310564;55;20955;-70
2023/04/12 07:50:30;;;;;;;3.33;1.05;;;15.30;68.40;;;;;;2310118;55;20998;-70
2023/04/12 07:53:17;;;;;;;2.72;1.10;;;15.30;68.40;;;;;;2549574;54;20926;-70
2023/04/12 07:55:43;;;;;;;2.85;1.05;;;15.40;67.50;;;;;;2310089;55;21773;-71
2023/04/12 07:58:10;;;;;;;3.00;1.20;;;15.40;68.40;;;;;;2311173;55;21821;-68
2023/04/12 08:00:37;;;;;;;2.97;0.98;;;15.40;68.30;;;;;;2310556;55;21458;-69
2023/04/12 08:03:03;;;;;;;2.70;1.08;;;15.40;68.30;;;;;;2310429;55;20947;-69
2023/04/12 08:05:30;;;;;;;3.33;1.20;;;15.40;68.30;;;;;;2290844;56;21043;-70
2023/04/12 08:07:59;;;;;;;5.12;1.62;;;15.50;68.30;;;;;;2523350;54;20986;-70
2023/04/12 08:10:25;;;;;;;3.05;1.10;;;15.50;68.20;;;;;;2308935;55;21074;-71
2023/04/12 08:12:51;;;;;;;3.28;1.20;;;15.50;68.00;;;;;;2549752;54;20958;-73
2023/04/12 08:15:18;;;;;;;3.33;1.00;;;15.50;68.00;;;;;;2310135;55;20950;-71
2023/04/12 08:17:45;;;;;;;3.95;1.30;;;15.50;68.00;;;;;;2549417;54;20962;-71
2023/04/12 08:20:11;;;;;;;5.55;1.35;;;15.50;68.00;;;;;;2549746;54;20947;-69
2023/04/12 08:22:41;;;;;;;3.00;1.37;;;15.50;67.90;;;;;;2549173;54;20996;-70
2023/04/12 08:25:09;;;;;;;3.72;1.30;;;15.50;67.70;;;;;;2550142;54;21002;-68
2023/04/12 08:27:40;;;;;;;3.40;1.20;;;15.50;68.00;;;;;;2309514;55;20987;-70
2023/04/12 08:30:07;;;;;;;3.03;1.20;;;15.50;68.00;;;;;;2549776;54;20948;-70
2023/04/12 08:32:34;;;;;;;3.75;1.12;;;15.50;68.00;;;;;;2309979;55;21896;-69
2023/04/12 08:35:01;;;;;;;3.75;0.98;;;15.50;68.00;;;;;;2522441;54;21447;-69
2023/04/12 08:37:27;;;;;;;5.00;1.45;;;15.60;68.00;;;;;;2309211;55;21006;-69
2023/04/12 08:39:53;;;;;;;3.72;1.20;;;15.60;68.00;;;;;;2545394;54;20930;-71
2023/04/12 08:42:20;;;;;;;2.97;1.33;;;15.60;67.90;;;;;;2293312;55;21028;-70
2023/04/12 08:44:47;;;;;;;4.55;1.12;;;15.60;67.90;;;;;;2519174;54;20939;-69
2023/04/12 08:47:13;;;;;;;4.07;1.10;;;15.60;67.90;;;;;;2549639;54;20971;-71
2023/04/12 08:49:40;;;;;;;2.90;1.17;;;15.70;68.00;;;;;;2549466;54;20907;-71
2023/04/12 08:52:10;;;;;;;3.45;1.10;;;15.70;67.90;;;;;;2309794;55;20975;-69
2023/04/12 08:54:37;;;;;;;2.83;1.00;;;15.70;68.00;;;;;;2548743;54;21745;-71
2023/04/12 08:57:05;;;;;;;2.60;1.02;;;15.70;68.00;;;;;;2549717;54;20969;-69
2023/04/12 08:59:34;;;;;;;3.10;1.20;;;15.70;68.00;;;;;;2549532;54;20978;-70
2023/04/12 09:02:01;;;;;;;3.53;1.45;;;15.70;67.80;;;;;;2550026;54;20986;-71
2023/04/12 09:04:28;;;;;;;2.65;1.10;;;15.70;67.80;;;;;;2549206;54;20919;-70
2023/04/12 09:06:55;;;;;;;2.40;1.10;;;15.80;67.80;;;;;;2310263;55;20986;-70
2023/04/12 09:09:43;;;;;;;3.78;1.33;;;15.80;67.90;;;;;;2525045;54;21081;-71
2023/04/12 09:12:10;;;;;;;3.33;1.10;;;15.80;66.80;;;;;;2549755;54;20915;-70
2023/04/12 09:14:36;;;;;;;4.28;1.35;;;15.80;67.90;;;;;;2310304;55;21026;-71
2023/04/12 09:17:03;;;;;;;2.67;1.02;;;15.80;67.70;;;;;;2550306;54;20935;-71
2023/04/12 09:19:34;;;;;;;3.95;1.10;;;15.80;67.70;;;;;;2308309;55;20942;-71
2023/04/12 09:22:00;;;;;;;2.87;1.05;;;15.90;67.70;;;;;;2549254;54;20923;-69
2023/04/12 09:24:28;;;;;;;3.17;1.08;;;15.90;68.60;;;;;;2547975;54;21402;-71
2023/04/12 09:27:03;;;;;;;2.37;0.90;;;15.90;67.80;;;;;;2310391;55;20927;-71
2023/04/12 09:29:30;;;;;;;5.03;1.30;;;15.90;67.00;;;;;;2309701;55;20954;-70
2023/04/12 09:32:03;;;;;;;2.78;1.10;;;15.90;67.50;;;;;;2310347;55;20919;-70
2023/04/12 09:34:30;;;;;;;3.10;1.20;;;15.90;67.40;;;;;;2309877;55;20935;-69
2023/04/12 09:36:56;;;;;;;2.62;1.02;;;16.00;67.50;;;;;;2298860;55;20942;-69
2023/04/12 09:39:34;;;;;;;2.92;1.20;;;16.00;67.40;;;;;;2301682;55;21026;-70
2023/04/12 09:42:08;;;;;;;3.45;1.30;;;16.00;66.60;;;;;;2548815;54;21468;-69
2023/04/12 09:44:38;;;;;;;3.83;1.48;;;16.00;67.30;;;;;;2548582;54;21006;-72
2023/04/12 09:47:05;;;;;;;2.87;1.10;;;16.00;67.30;;;;;;2548544;54;20930;-69
2023/04/12 09:49:38;;;;;;;3.90;1.20;;;16.00;67.30;;;;;;2549066;54;20931;-70
2023/04/12 09:52:09;;;;;;;4.00;1.20;;;16.10;67.00;;;;;;2310647;55;21451;-71
2023/04/12 09:54:37;;;;;;;3.42;0.98;;;16.10;67.20;;;;;;2549842;54;20951;-72
2023/04/12 09:57:07;;;;;;;2.60;1.05;;;16.10;67.40;;;;;;2549227;54;21839;-69
2023/04/12 09:59:39;;;;;;;2.80;1.00;;;16.10;68.00;;;;;;2310404;55;21046;-70
2023/04/12 10:02:16;;;;;;;4.45;1.27;;;16.10;67.20;;;;;;2550017;54;21372;-71
2023/04/12 10:04:44;;;;;;;2.97;1.12;;;16.10;67.20;;;;;;2528693;54;21025;-69
2023/04/12 10:07:11;;;;;;;4.15;1.55;;;16.10;67.30;;;;;;2306098;55;20966;-69
2023/04/12 10:09:39;;;;;;;2.53;1.20;;;16.20;67.50;;;;;;2548865;54;21360;-70
2023/04/12 10:12:05;;;;;;;2.78;1.27;;;16.20;67.50;;;;;;2549919;54;20907;-72
2023/04/12 10:14:32;;;;;;;3.05;1.20;;;16.20;67.60;;;;;;2549398;54;20936;-69
2023/04/12 10:17:00;;;;;;;3.10;1.35;;;16.20;67.30;;;;;;2310844;55;21540;-72
2023/04/12 10:19:27;;;;;;;3.83;1.05;;;16.30;67.20;;;;;;2309566;55;21006;-71
2023/04/12 10:21:55;;;;;;;2.53;1.00;;;16.30;67.50;;;;;;2549463;54;20958;-73
2023/04/12 10:24:26;;;;;;;4.12;1.10;;;16.30;67.50;;;;;;2522128;54;20986;-73
2023/04/12 10:26:54;;;;;;;4.70;1.42;;;16.30;67.50;;;;;;2549843;54;20962;-73
2023/04/12 10:29:31;;;;;;;3.47;1.10;;;16.40;67.70;;;;;;2310249;55;20911;-73
2023/04/12 10:32:20;;;;;;;4.37;1.40;;;16.40;66.90;;;;;;2549380;54;21455;-72
2023/04/12 10:34:55;;;;;;;4.45;1.40;;;16.50;66.30;;;;;;2549598;54;20946;-72
2023/04/12 10:37:21;;;;;;;4.95;1.30;;;16.50;66.90;;;;;;2549302;54;21118;-73
2023/04/12 10:39:51;;;;;;;5.03;1.25;;;16.60;67.30;;;;;;2307552;55;20993;-72
2023/04/12 10:42:55;;;;;;;2.85;1.10;;;16.60;67.20;;;;;;2531303;54;21740;-73
2023/04/12 10:45:39;;;;;;;3.72;1.40;;;16.60;67.50;;;;;;2309607;55;20958;-71
2023/04/12 10:48:07;;;;;;;4.20;1.15;;;16.70;66.60;;;;;;2311255;55;20915;-72
2023/04/12 10:50:34;;;;;;;5.57;1.62;;;16.70;67.50;;;;;;2549185;54;21070;-72
2023/04/12 10:55:41;;;;;;;3.90;1.23;;;16.70;67.50;;;;;;2310507;55;21031;-72
2023/04/12 10:58:08;;;;;;;;;;;16.80;66.10;;;;;;2554472;54;20979;-74
2023/04/12 11:01:10;;;;;;;3.40;1.40;;;16.90;66.30;;;;;;2549565;54;20446;-73
2023/04/12 11:04:02;;;;;;;4.07;1.20;;;16.90;66.70;;;;;;2310111;55;21014;-72
2023/04/12 11:06:55;;;;;;;2.87;1.42;;;16.90;67.70;;;;;;2548577;54;20975;-73
2023/04/12 11:09:29;;;;;;;3.00;1.08;;;16.90;66.60;;;;;;2549564;54;20935;-74
2023/04/12 11:12:14;;;;;;;3.30;1.40;;;16.90;67.40;;;;;;2550023;54;20946;-73
2023/04/12 11:14:50;;;;;;;4.20;1.45;;;16.90;67.50;;;;;;2310633;55;20963;-73
2023/04/12 11:17:20;;;;;;;3.30;1.15;;;17.00;67.00;;;;;;2314057;55;21398;-73
2023/04/12 11:20:03;;;;;;;2.28;1.02;;;17.00;67.30;;;;;;2310830;55;20934;-73
2023/04/12 11:22:30;;;;;;;4.00;1.20;;;17.00;67.20;;;;;;2293758;55;21061;-72
2023/04/12 11:25:00;;;;;;;2.92;1.10;;;17.00;68.00;;;;;;2309213;55;21350;-72
2023/04/12 11:27:26;;;;;;;3.70;1.10;;;17.10;67.50;;;;;;2547969;54;20934;-71
2023/04/12 11:29:54;;;;;;;2.72;1.05;;;17.10;67.70;;;;;;2524599;54;21583;-71
2023/04/12 11:32:26;;;;;;;3.62;1.10;;;17.10;67.80;;;;;;2310222;55;20931;-71
2023/04/12 11:34:53;;;;;;;2.37;0.90;;;17.20;67.60;;;;;;2311034;55;20970;-72
2023/04/12 11:37:20;;;;;;;3.40;1.20;;;17.20;67.90;;;;;;2307285;55;21001;-72
2023/04/12 11:39:48;;;;;;;3.15;1.15;;;17.30;68.20;;;;;;2529238;54;21740;-72
2023/04/12 11:42:18;;;;;;;3.28;1.23;;;17.40;68.90;;;;;;2310123;55;20942;-71
2023/04/12 11:44:46;;;;;;;3.42;1.20;;;17.40;67.90;;;;;;2311224;55;20950;-72
2023/04/12 11:47:24;;;;;;;2.37;1.00;;;17.50;68.00;;;;;;2550228;54;21775;-71
2023/04/12 11:49:52;;;;;;;3.72;1.35;;;17.60;67.10;;;;;;2297302;55;21401;-71
2023/04/12 11:52:20;;;;;;;2.42;1.00;;;17.60;67.50;;;;;;2304237;55;20991;-76
2023/04/12 11:54:50;;;;;;;3.92;1.27;;;17.70;67.40;;;;;;2529419;54;21423;-73
2023/04/12 11:57:17;;;;;;;3.15;0.98;;;17.70;67.40;;;;;;2530354;54;21038;-72
2023/04/12 11:59:48;;;;;;;4.03;1.23;;;17.80;67.40;;;;;;2276309;56;21109;-73
2023/04/12 12:02:16;;;;;;;3.05;0.90;;;17.80;66.70;;;;;;2310746;55;21935;-73
2023/04/12 12:04:48;;;;;;;3.17;1.05;;;17.80;66.90;;;;;;2311067;55;20943;-71
2023/04/12 12:07:18;;;;;;;3.10;1.00;;;17.90;66.80;;;;;;2548640;54;20994;-73
2023/04/12 12:09:46;;;;;;;3.12;1.05;;;17.90;66.50;;;;;;2303073;55;20995;-72
2023/04/12 12:12:12;;;;;;;5.90;1.30;;;17.90;66.00;;;;;;2535590;54;21007;-72
2023/04/12 12:14:39;;;;;;;2.92;1.10;;;17.90;66.00;;;;;;2308974;55;20978;-72
2023/04/12 12:17:13;;;;;;;5.28;1.12;;;17.90;66.00;;;;;;2310004;55;21735;-72
2023/04/12 12:19:40;;;;;;;2.75;0.95;;;17.90;65.70;;;;;;2521455;54;21554;-73
2023/04/12 12:22:18;;;;;;;4.18;1.10;;;17.90;66.10;;;;;;2310108;55;20975;-73
2023/04/12 12:24:58;;;;;;;2.40;0.90;;;17.90;65.50;;;;;;2549362;54;20999;-72
2023/04/12 12:27:33;;;;;;;2.33;0.80;;;17.90;65.10;;;;;;2548854;54;20963;-72
2023/04/12 12:30:01;;;;;;;3.33;1.05;;;18.00;65.50;;;;;;2295503;55;20953;-72
2023/04/12 12:32:32;;;;;;;2.10;0.70;;;17.90;66.10;;;;;;2545345;54;20950;-73
2023/04/12 12:34:58;;;;;;;3.58;1.17;;;17.90;65.90;;;;;;2549606;54;21069;-73
2023/04/12 12:37:28;;;;;;;3.70;1.10;;;18.00;66.20;;;;;;2549551;54;20954;-72
2023/04/12 12:40:14;;;;;;;2.05;0.90;;;18.00;66.10;;;;;;2310482;55;20974;-73
2023/04/12 12:42:53;;;;;;;3.17;1.10;;;18.00;65.20;;;;;;2545526;54;20943;-72
2023/04/12 12:45:21;;;;;;;3.78;1.10;;;18.00;65.20;;;;;;2516642;54;20946;-71
2023/04/12 12:48:06;;;;;;;4.78;1.02;;;18.00;66.00;;;;;;2535961;54;20975;-73
2023/04/12 12:50:33;;;;;;;3.78;1.00;;;18.00;64.60;;;;;;2549013;54;21809;-71
2023/04/12 12:53:00;;;;;;;2.95;0.70;;;18.00;65.70;;;;;;2549647;54;20946;-73
2023/04/12 12:55:27;;;;;;;2.28;0.68;;;18.00;65.80;;;;;;2310492;55;21019;-72
2023/04/12 12:57:55;;;;;;;3.20;1.02;;;18.00;65.80;;;;;;2310165;55;21038;-73
2023/04/12 13:00:32;;;;;;;2.05;0.80;;;18.00;65.80;;;;;;2310433;55;21686;-73
2023/04/12 13:02:58;;;;;;;3.42;1.00;;;18.00;65.80;;;;;;2310092;55;20912;-73